Time;durP1;ratioP1;P1;durP2;ratioP2;P2;SDS_P1;SDS_P2;PMS_P1;PMS_P2;Temp;Humidity;BMP_temperature;BMP_pressure;BME280_temperature;BME280_humidity;BME280_pressure;Samples;Min_cycle;Max_cycle;Signal;HPM_P1;HPM_P2
2021/11/17 02:26:47;;;;;;;;;42.75;38.00;;;;;;;;5011130;28;45545;-71
2021/11/17 02:29:28;;;;;;;;;49.75;39.50;;;;;;;;5011624;28;45451;-71
2021/11/17 02:32:15;;;;;;;;;56.25;41.25;;;;;;;;5002525;28;45833;-71
2021/11/17 02:34:40;;;;;;;;;51.25;38.75;;;;;;;;5008838;28;45564;-71
2021/11/17 02:37:18;;;;;;;;;53.33;38.00;;;;;;;;5002825;28;45613;-72
2021/11/17 02:39:43;;;;;;;;;45.00;38.25;;;;;;;;5011237;28;45286;-72
2021/11/17 02:42:08;;;;;;;;;49.25;39.50;;;;;;;;5012421;28;45434;-72
2021/11/17 02:44:52;;;;;;;;;58.33;41.00;;;;;;;;4999696;28;45329;-72
2021/11/17 02:47:43;;;;;;;;;50.50;36.50;;;;;;;;5002747;28;46278;-72
2021/11/17 02:50:08;;;;;;;;;51.25;38.25;;;;;;;;4983110;28;45504;-72
2021/11/17 02:52:42;;;;;;;;;54.75;36.50;;;;;;;;5011145;28;45917;-71
2021/11/17 02:55:20;;;;;;;;;48.00;38.75;;;;;;;;5010961;28;45803;-71
2021/11/17 02:57:52;;;;;;;;;52.25;36.25;;;;;;;;5005979;28;45745;-72
2021/11/17 03:00:32;;;;;;;;;54.50;36.00;;;;;;;;5015731;28;45803;-71
2021/11/17 03:03:03;;;;;;;;;46.75;33.50;;;;;;;;5004652;28;45629;-71
2021/11/17 03:05:28;;;;;;;;;44.00;33.00;;;;;;;;5010394;28;45366;-71
2021/11/17 03:08:06;;;;;;;;;50.00;37.75;;;;;;;;5007385;28;45629;-71
2021/11/17 03:10:40;;;;;;;;;51.00;36.50;;;;;;;;5012794;28;45486;-71
2021/11/17 03:13:18;;;;;;;;;56.75;39.25;;;;;;;;5009454;28;45605;-71
2021/11/17 03:15:46;;;;;;;;;45.75;35.00;;;;;;;;5003046;28;45348;-72
2021/11/17 03:18:29;;;;;;;;;46.75;35.75;;;;;;;;5009824;28;45557;-72
2021/11/17 03:21:00;;;;;;;;;53.00;38.00;;;;;;;;5000376;28;47714;-72
2021/11/17 03:23:26;;;;;;;;;48.50;38.50;;;;;;;;5008123;28;45590;-71
2021/11/17 03:25:54;;;;;;;;;51.25;38.00;;;;;;;;5009177;28;45352;-71
2021/11/17 03:28:34;;;;;;;;;48.00;35.00;;;;;;;;5012128;28;45510;-72
2021/11/17 03:31:38;;;;;;;;;53.25;36.25;;;;;;;;5008093;28;45376;-72
2021/11/17 03:34:12;;;;;;;;;58.50;38.00;;;;;;;;4961637;28;46133;-72
2021/11/17 03:36:37;;;;;;;;;63.00;39.50;;;;;;;;4952205;28;45472;-72
2021/11/17 03:39:05;;;;;;;;;55.00;38.50;;;;;;;;4956426;28;45469;-71
2021/11/17 03:41:30;;;;;;;;;56.00;39.50;;;;;;;;4951040;28;45582;-71
2021/11/17 03:43:55;;;;;;;;;52.25;38.00;;;;;;;;4954931;28;46285;-72
2021/11/17 03:46:26;;;;;;;;;47.50;33.25;;;;;;;;4955849;28;45468;-72
2021/11/17 03:48:57;;;;;;;;;51.25;37.25;;;;;;;;4954953;28;45622;-71
2021/11/17 03:51:25;;;;;;;;;51.25;36.75;;;;;;;;4955194;28;45773;-71
2021/11/17 03:54:02;;;;;;;;;57.50;40.00;;;;;;;;4957280;28;45720;-72
2021/11/17 03:56:33;;;;;;;;;56.50;39.50;;;;;;;;4964860;28;45457;-72
2021/11/17 03:59:05;;;;;;;;;51.75;36.50;;;;;;;;4966108;28;45473;-72
2021/11/17 04:01:31;;;;;;;;;52.50;42.00;;;;;;;;4955639;28;45649;-72
2021/11/17 04:04:15;;;;;;;;;48.33;38.00;;;;;;;;4961604;28;46965;-71
2021/11/17 04:06:49;;;;;;;;;44.00;34.25;;;;;;;;5007163;28;45338;-71
2021/11/17 04:09:27;;;;;;;;;59.75;38.75;;;;;;;;5003182;28;45506;-71
2021/11/17 04:11:53;;;;;;;;;54.00;39.50;;;;;;;;5002528;28;45471;-72
2021/11/17 04:14:24;;;;;;;;;51.75;39.25;;;;;;;;4996217;28;47361;-71
2021/11/17 04:16:58;;;;;;;;;56.75;39.75;;;;;;;;5007265;28;45521;-72
2021/11/17 04:19:29;;;;;;;;;54.50;36.00;;;;;;;;5009518;28;45375;-71
2021/11/17 04:21:54;;;;;;;;;50.50;37.25;;;;;;;;5007193;28;45430;-72
2021/11/17 04:24:26;;;;;;;;;56.67;41.33;;;;;;;;5012307;28;45499;-72
2021/11/17 04:26:51;;;;;;;;;53.25;39.00;;;;;;;;5011531;28;45582;-72
2021/11/17 04:29:27;;;;;;;;;50.25;34.00;;;;;;;;5006373;28;45583;-71
2021/11/17 04:32:11;;;;;;;;;58.50;38.75;;;;;;;;5006636;28;45558;-72
2021/11/17 04:34:51;;;;;;;;;54.25;37.25;;;;;;;;5006234;28;45703;-72
2021/11/17 04:37:22;;;;;;;;;43.50;38.00;;;;;;;;5005101;28;45484;-72
2021/11/17 04:39:47;;;;;;;;;46.00;36.00;;;;;;;;5012120;28;45581;-72
2021/11/17 04:42:31;;;;;;;;;48.00;36.67;;;;;;;;5011087;28;45419;-72
2021/11/17 04:45:08;;;;;;;;;49.00;36.50;;;;;;;;5012243;28;45451;-72
2021/11/17 04:47:36;;;;;;;;;44.50;36.75;;;;;;;;5012946;28;45579;-72
2021/11/17 04:50:15;;;;;;;;;54.50;38.50;;;;;;;;5011649;28;45380;-72
2021/11/17 04:52:49;;;;;;;;;49.50;35.50;;;;;;;;5006285;28;45478;-71
2021/11/17 04:55:14;;;;;;;;;64.25;40.25;;;;;;;;5005353;28;46365;-71
2021/11/17 04:57:49;;;;;;;;;38.00;32.00;;;;;;;;5010805;28;45508;-71
2021/11/17 05:00:17;;;;;;;;;53.25;39.25;;;;;;;;5012636;28;45494;-72
2021/11/17 05:02:48;;;;;;;;;53.75;40.25;;;;;;;;5000349;28;45548;-72
2021/11/17 05:05:13;;;;;;;;;55.50;42.00;;;;;;;;5007934;28;46495;-72
2021/11/17 05:08:00;;;;;;;;;52.33;38.67;;;;;;;;5009379;28;45474;-72
2021/11/17 05:10:34;;;;;;;;;58.75;41.25;;;;;;;;5011093;28;45354;-72
2021/11/17 05:13:05;;;;;;;;;57.25;41.75;;;;;;;;5012339;28;45391;-72
2021/11/17 05:15:37;;;;;;;;;53.50;38.50;;;;;;;;5006695;28;46510;-72
2021/11/17 05:18:17;;;;;;;;;51.50;39.50;;;;;;;;5010030;28;45481;-72
2021/11/17 05:21:12;;;;;;;;;64.75;45.75;;;;;;;;5004566;28;45557;-72
2021/11/17 05:23:37;;;;;;;;;52.00;37.75;;;;;;;;5011529;28;45910;-72
2021/11/17 05:26:02;;;;;;;;;54.50;39.00;;;;;;;;5010699;28;45506;-72
2021/11/17 05:28:39;;;;;;;;;52.75;41.00;;;;;;;;5009351;28;45398;-72
2021/11/17 05:31:16;;;;;;;;;55.75;41.50;;;;;;;;5010312;28;45399;-72
2021/11/17 05:33:44;;;;;;;;;50.50;38.75;;;;;;;;5005356;28;45593;-72
2021/11/17 05:36:30;;;;;;;;;61.00;41.75;;;;;;;;5003151;28;45622;-72
2021/11/17 05:39:16;;;;;;;;;61.00;43.00;;;;;;;;4993134;28;45578;-72
2021/11/17 05:41:41;;;;;;;;;56.00;41.00;;;;;;;;4993181;28;45676;-72
2021/11/17 05:44:16;;;;;;;;;58.50;40.50;;;;;;;;4989677;28;45479;-72
2021/11/17 05:46:41;;;;;;;;;56.75;39.75;;;;;;;;4990766;28;46760;-72
2021/11/17 05:49:12;;;;;;;;;52.33;38.33;;;;;;;;4989763;28;45659;-72
2021/11/17 05:51:38;;;;;;;;;56.50;42.25;;;;;;;;4989765;28;45440;-72
2021/11/17 05:54:03;;;;;;;;;56.33;42.00;;;;;;;;4992817;28;45640;-72
2021/11/17 05:56:33;;;;;;;;;60.25;43.25;;;;;;;;4989912;28;45629;-72
2021/11/17 05:59:13;;;;;;;;;56.00;42.00;;;;;;;;4992842;28;46238;-72
2021/11/17 06:01:53;;;;;;;;;65.00;44.50;;;;;;;;4989151;28;45534;-72
2021/11/17 06:04:18;;;;;;;;;60.50;42.00;;;;;;;;4992792;28;45446;-72
2021/11/17 06:06:43;;;;;;;;;54.75;42.00;;;;;;;;4991690;28;46411;-72
2021/11/17 06:09:09;;;;;;;;;58.67;41.33;;;;;;;;4990651;28;45500;-72
2021/11/17 06:11:49;;;;;;;;;49.75;39.00;;;;;;;;4987736;28;46102;-73
2021/11/17 06:14:16;;;;;;;;;57.00;41.50;;;;;;;;4991442;28;45915;-72
2021/11/17 06:16:44;;;;;;;;;64.75;44.25;;;;;;;;5005772;28;45508;-72
2021/11/17 06:19:10;;;;;;;;;50.00;37.75;;;;;;;;5011099;28;45534;-71
2021/11/17 06:21:38;;;;;;;;;57.25;43.50;;;;;;;;5009842;28;45428;-72
2021/11/17 06:24:05;;;;;;;;;57.25;43.50;;;;;;;;5006939;28;45570;-72
2021/11/17 06:26:34;;;;;;;;;58.00;41.50;;;;;;;;4994732;28;46505;-72
2021/11/17 06:29:02;;;;;;;;;56.75;42.00;;;;;;;;5003478;28;45444;-72
2021/11/17 06:31:27;;;;;;;;;56.00;42.25;;;;;;;;5003789;28;45527;-72
2021/11/17 06:33:53;;;;;;;;;55.25;39.75;;;;;;;;5002691;28;45388;-72
2021/11/17 06:36:18;;;;;;;;;55.00;41.00;;;;;;;;5006393;28;46796;-72
2021/11/17 06:38:46;;;;;;;;;55.00;39.00;;;;;;;;5014608;28;45541;-72
2021/11/17 06:41:13;;;;;;;;;53.25;38.50;;;;;;;;5011415;28;45455;-72
2021/11/17 06:43:38;;;;;;;;;49.00;37.00;;;;;;;;5010650;28;45447;-73
2021/11/17 06:46:03;;;;;;;;;52.00;38.00;;;;;;;;5008766;28;46322;-72
2021/11/17 06:48:30;;;;;;;;;55.67;39.67;;;;;;;;5004260;28;45352;-72
2021/11/17 06:50:56;;;;;;;;;55.25;41.75;;;;;;;;5000312;28;45275;-72
2021/11/17 06:53:22;;;;;;;;;53.75;37.50;;;;;;;;5001857;28;45360;-71
2021/11/17 06:55:48;;;;;;;;;50.75;38.00;;;;;;;;5014017;28;46765;-71
2021/11/17 06:58:13;;;;;;;;;50.00;37.00;;;;;;;;5007584;28;45561;-72
2021/11/17 07:00:40;;;;;;;;;49.00;35.50;;;;;;;;5006789;28;45426;-72
2021/11/17 07:03:05;;;;;;;;;49.25;35.25;;;;;;;;5013775;28;45417;-71
2021/11/17 07:05:31;;;;;;;;;46.50;33.00;;;;;;;;5013123;28;46483;-71
2021/11/17 07:07:57;;;;;;;;;56.33;38.33;;;;;;;;5005966;28;45458;-71
2021/11/17 07:10:24;;;;;;;;;51.00;38.50;;;;;;;;5012112;28;46180;-71
2021/11/17 07:12:50;;;;;;;;;43.75;36.25;;;;;;;;5005369;28;45475;-71
2021/11/17 07:15:15;;;;;;;;;55.00;35.33;;;;;;;;5008384;28;45456;-71
2021/11/17 07:17:41;;;;;;;;;51.50;36.75;;;;;;;;5013863;28;45444;-71
2021/11/17 07:20:07;;;;;;;;;42.50;30.25;;;;;;;;4999964;28;45361;-71
2021/11/17 07:22:32;;;;;;;;;38.50;35.00;;;;;;;;5005570;28;45517;-71
2021/11/17 07:24:57;;;;;;;;;45.33;36.67;;;;;;;;5004059;28;46625;-71
2021/11/17 07:27:23;;;;;;;;;45.33;34.00;;;;;;;;5004045;28;45347;-71
2021/11/17 07:29:53;;;;;;;;;49.00;37.33;;;;;;;;5002961;28;45486;-71
2021/11/17 07:32:19;;;;;;;;;43.25;35.50;;;;;;;;5008310;28;45516;-71
2021/11/17 07:34:44;;;;;;;;;48.50;37.00;;;;;;;;5005911;28;45383;-71
2021/11/17 07:37:09;;;;;;;;;46.67;31.00;;;;;;;;5005717;28;45401;-71
2021/11/17 07:39:35;;;;;;;;;43.33;31.67;;;;;;;;5005757;28;45489;-71
2021/11/17 07:42:00;;;;;;;;;47.25;34.75;;;;;;;;5004883;28;45461;-71
2021/11/17 07:44:25;;;;;;;;;31.33;26.00;;;;;;;;5005792;28;46590;-71
2021/11/17 07:46:52;;;;;;;;;34.00;30.00;;;;;;;;5008345;28;45292;-72
2021/11/17 07:49:19;;;;;;;;;37.00;31.75;;;;;;;;5005915;28;45427;-71
2021/11/17 07:51:44;;;;;;;;;37.25;32.00;;;;;;;;5004498;28;45388;-72
2021/11/17 07:54:10;;;;;;;;;33.00;26.25;;;;;;;;5005224;28;45749;-72
2021/11/17 07:56:36;;;;;;;;;41.25;29.25;;;;;;;;5006348;28;45438;-72
2021/11/17 07:59:02;;;;;;;;;43.25;34.25;;;;;;;;5005120;28;45560;-73
2021/11/17 08:01:28;;;;;;;;;51.25;36.75;;;;;;;;5012230;28;45361;-73
2021/11/17 08:03:53;;;;;;;;;35.25;27.25;;;;;;;;5010119;28;45490;-72
2021/11/17 08:06:21;;;;;;;;;70.50;51.75;;;;;;;;5008983;28;45443;-73
2021/11/17 08:08:46;;;;;;;;;45.25;30.50;;;;;;;;4996643;28;45338;-72
2021/11/17 08:11:13;;;;;;;;;37.00;31.25;;;;;;;;4990393;28;45683;-71
2021/11/17 08:13:38;;;;;;;;;41.50;26.75;;;;;;;;5007685;28;45537;-72
2021/11/17 08:16:07;;;;;;;;;39.25;28.25;;;;;;;;5004746;28;45576;-72
2021/11/17 08:18:33;;;;;;;;;36.75;29.25;;;;;;;;5005494;28;45533;-72
2021/11/17 08:20:59;;;;;;;;;35.50;25.25;;;;;;;;5010854;28;45522;-72
2021/11/17 08:23:24;;;;;;;;;30.75;26.50;;;;;;;;5003888;28;45864;-72
2021/11/17 08:25:50;;;;;;;;;30.00;24.33;;;;;;;;5004959;28;46998;-72
2021/11/17 08:28:15;;;;;;;;;37.67;27.67;;;;;;;;5009165;28;45297;-72
2021/11/17 08:30:41;;;;;;;;;38.75;28.75;;;;;;;;5010385;28;49414;-73
2021/11/17 08:33:07;;;;;;;;;40.00;29.50;;;;;;;;5012360;28;47029;-72
2021/11/17 08:35:32;;;;;;;;;88.25;69.50;;;;;;;;5013038;28;45649;-72
2021/11/17 08:38:00;;;;;;;;;39.50;32.50;;;;;;;;5008453;28;45363;-72
2021/11/17 08:40:27;;;;;;;;;39.00;32.75;;;;;;;;5008349;28;45414;-72
2021/11/17 08:42:53;;;;;;;;;39.50;25.25;;;;;;;;5010541;28;46597;-72
2021/11/17 08:45:19;;;;;;;;;43.00;33.25;;;;;;;;5011783;28;45544;-72
2021/11/17 08:47:44;;;;;;;;;36.75;29.75;;;;;;;;5005066;28;45620;-71
2021/11/17 08:50:12;;;;;;;;;35.00;28.67;;;;;;;;5011038;28;45335;-72
2021/11/17 08:52:38;;;;;;;;;30.75;24.25;;;;;;;;5008702;28;46514;-71
2021/11/17 08:55:04;;;;;;;;;32.00;30.00;;;;;;;;5010290;28;45506;-72
2021/11/17 08:57:29;;;;;;;;;33.25;25.25;;;;;;;;5000927;28;45486;-72
2021/11/17 08:59:54;;;;;;;;;28.00;23.67;;;;;;;;5009134;28;45355;-72
2021/11/17 09:02:19;;;;;;;;;228.67;184.00;;;;;;;;5003248;28;46199;-73
2021/11/17 09:04:45;;;;;;;;;42.33;31.67;;;;;;;;5013292;28;45362;-71
2021/11/17 09:07:11;;;;;;;;;38.50;26.75;;;;;;;;5005705;28;45545;-71
2021/11/17 09:09:36;;;;;;;;;33.25;28.25;;;;;;;;5012252;28;45484;-71
2021/11/17 09:12:01;;;;;;;;;35.67;27.67;;;;;;;;5009650;28;46423;-71
2021/11/17 09:14:27;;;;;;;;;37.25;28.25;;;;;;;;4997543;28;45430;-71
2021/11/17 09:16:52;;;;;;;;;30.67;25.67;;;;;;;;4997956;28;46547;-71
2021/11/17 09:19:17;;;;;;;;;35.00;27.50;;;;;;;;4995063;28;46410;-71
2021/11/17 09:21:44;;;;;;;;;37.25;29.75;;;;;;;;5000147;28;46497;-72
2021/11/17 09:24:10;;;;;;;;;34.00;25.75;;;;;;;;5006697;28;45543;-71
2021/11/17 09:26:35;;;;;;;;;30.75;26.00;;;;;;;;5011564;28;45358;-72
2021/11/17 09:29:01;;;;;;;;;33.50;30.00;;;;;;;;5002496;28;45306;-71
2021/11/17 09:31:28;;;;;;;;;32.75;26.75;;;;;;;;5013952;28;46450;-71
2021/11/17 09:33:53;;;;;;;;;32.75;26.50;;;;;;;;5014548;28;45785;-71
2021/11/17 09:36:20;;;;;;;;;29.25;24.00;;;;;;;;5015511;28;45557;-71
2021/11/17 09:38:50;;;;;;;;;35.25;26.75;;;;;;;;5013585;28;45418;-72
2021/11/17 09:41:16;;;;;;;;;32.75;24.50;;;;;;;;5015398;28;46357;-71
2021/11/17 09:43:47;;;;;;;;;35.50;24.75;;;;;;;;5015730;28;45325;-71
2021/11/17 09:46:14;;;;;;;;;36.75;26.50;;;;;;;;5012380;28;45653;-71
2021/11/17 09:48:42;;;;;;;;;36.25;23.25;;;;;;;;5011064;28;45619;-73
2021/11/17 09:51:08;;;;;;;;;36.25;29.00;;;;;;;;5009744;28;45775;-72
2021/11/17 09:53:37;;;;;;;;;36.50;30.00;;;;;;;;5009856;28;45424;-72
2021/11/17 09:56:08;;;;;;;;;35.25;30.00;;;;;;;;5011087;28;45438;-72
2021/11/17 09:58:44;;;;;;;;;32.50;24.00;;;;;;;;5005546;28;45482;-72
2021/11/17 10:01:13;;;;;;;;;34.50;26.00;;;;;;;;5014331;28;46475;-72
2021/11/17 10:04:00;;;;;;;;;40.50;28.00;;;;;;;;5010431;28;45972;-72
2021/11/17 10:14:53;;;;;;;;;44.75;37.50;;;;;;;;4990407;28;45993;-72
2021/11/17 10:17:45;;;;;;;;;43.50;32.75;;;;;;;;4993192;28;45335;-71
2021/11/17 10:20:11;;;;;;;;;47.75;33.75;;;;;;;;4933833;28;45614;-72
2021/11/17 10:22:37;;;;;;;;;46.00;36.00;;;;;;;;4931541;28;46373;-72
2021/11/17 10:25:07;;;;;;;;;47.75;35.00;;;;;;;;4929172;28;45889;-72
2021/11/17 10:27:33;;;;;;;;;47.75;37.25;;;;;;;;4936264;28;45652;-72
2021/11/17 10:30:15;;;;;;;;;50.33;36.00;;;;;;;;4935328;28;45290;-72
2021/11/17 10:32:42;;;;;;;;;42.00;33.50;;;;;;;;4935021;28;46499;-72
2021/11/17 10:35:25;;;;;;;;;49.75;37.00;;;;;;;;4933067;28;46068;-72
2021/11/17 10:38:08;;;;;;;;;48.75;36.50;;;;;;;;4935442;28;45517;-72
2021/11/17 10:40:42;;;;;;;;;49.75;37.25;;;;;;;;4932897;28;45382;-72
2021/11/17 10:43:14;;;;;;;;;43.50;35.25;;;;;;;;4933364;28;46402;-72
2021/11/17 10:45:46;;;;;;;;;44.75;35.00;;;;;;;;4933238;28;45333;-72
2021/11/17 10:48:19;;;;;;;;;46.00;36.50;;;;;;;;4941689;28;45410;-72
2021/11/17 10:50:44;;;;;;;;;42.00;36.00;;;;;;;;4954088;28;45480;-72
2021/11/17 10:53:14;;;;;;;;;40.50;34.00;;;;;;;;4954832;28;46011;-72
2021/11/17 10:55:41;;;;;;;;;47.00;35.75;;;;;;;;4954886;28;45615;-73
2021/11/17 10:58:10;;;;;;;;;42.50;33.00;;;;;;;;5006124;28;45549;-72
2021/11/17 11:00:40;;;;;;;;;42.00;35.50;;;;;;;;5003318;28;45691;-72
2021/11/17 11:03:07;;;;;;;;;47.75;32.50;;;;;;;;5002008;28;46742;-72
2021/11/17 11:05:35;;;;;;;;;43.25;31.25;;;;;;;;5002365;28;46031;-72
2021/11/17 11:08:07;;;;;;;;;40.25;32.00;;;;;;;;5004200;28;45493;-72
2021/11/17 11:10:32;;;;;;;;;43.50;34.75;;;;;;;;5005596;28;45340;-72
2021/11/17 11:12:58;;;;;;;;;41.00;31.33;;;;;;;;5010936;28;46192;-72
2021/11/17 11:15:36;;;;;;;;;34.75;30.00;;;;;;;;5005790;28;46853;-72
2021/11/17 11:18:04;;;;;;;;;36.50;28.25;;;;;;;;5009948;28;45520;-72
2021/11/17 11:20:33;;;;;;;;;45.75;38.00;;;;;;;;5003575;28;45653;-72
2021/11/17 11:22:58;;;;;;;;;89.00;80.00;;;;;;;;5010717;28;45552;-73
2021/11/17 11:25:41;;;;;;;;;68.75;52.25;;;;;;;;5003250;28;45462;-72
2021/11/17 11:28:22;;;;;;;;;144.25;122.25;;;;;;;;5008993;28;45508;-72
2021/11/17 11:30:48;;;;;;;;;78.50;63.00;;;;;;;;5010661;28;45328;-72
2021/11/17 11:33:22;;;;;;;;;103.50;85.25;;;;;;;;5001028;28;46566;-72
2021/11/17 11:36:06;;;;;;;;;78.50;55.50;;;;;;;;4998406;28;46240;-72
2021/11/17 11:38:32;;;;;;;;;54.50;41.75;;;;;;;;5012228;28;45544;-72
2021/11/17 11:41:16;;;;;;;;;37.00;30.75;;;;;;;;5014903;28;45551;-72
2021/11/17 11:43:42;;;;;;;;;37.00;30.50;;;;;;;;5014117;28;45365;-72
2021/11/17 11:46:19;;;;;;;;;46.50;36.00;;;;;;;;5005954;28;45399;-73
2021/11/17 11:48:55;;;;;;;;;28.50;24.75;;;;;;;;5009134;28;45568;-72
2021/11/17 11:51:21;;;;;;;;;31.00;27.75;;;;;;;;5010536;28;45493;-72
2021/11/17 11:53:58;;;;;;;;;37.50;30.50;;;;;;;;5007742;28;46561;-72
2021/11/17 11:56:36;;;;;;;;;36.75;32.00;;;;;;;;5002635;28;46699;-74
2021/11/17 11:59:06;;;;;;;;;25.50;22.25;;;;;;;;5002100;28;45458;-75
2021/11/17 12:01:32;;;;;;;;;31.00;25.00;;;;;;;;5001762;28;45371;-72
2021/11/17 12:04:00;;;;;;;;;25.25;22.50;;;;;;;;5002479;28;47022;-72
2021/11/17 12:06:31;;;;;;;;;28.00;23.50;;;;;;;;5003130;28;45583;-72
2021/11/17 12:08:56;;;;;;;;;24.50;23.25;;;;;;;;5009907;28;45516;-72
2021/11/17 12:11:23;;;;;;;;;27.33;22.67;;;;;;;;5007176;28;45372;-72
2021/11/17 12:14:00;;;;;;;;;28.50;24.00;;;;;;;;5010609;28;46705;-72
2021/11/17 12:16:27;;;;;;;;;24.75;21.00;;;;;;;;4998770;28;45836;-72
2021/11/17 12:18:52;;;;;;;;;24.00;23.25;;;;;;;;5008677;28;45466;-72
2021/11/17 12:21:21;;;;;;;;;33.67;25.33;;;;;;;;5011204;28;45359;-71
2021/11/17 12:24:01;;;;;;;;;25.75;24.25;;;;;;;;5008203;28;45550;-72
2021/11/17 12:26:26;;;;;;;;;27.00;23.50;;;;;;;;5003523;28;45805;-71
2021/11/17 12:28:57;;;;;;;;;26.00;23.67;;;;;;;;5009231;28;45490;-71
2021/11/17 12:31:28;;;;;;;;;26.25;23.75;;;;;;;;5009906;28;45499;-71
2021/11/17 12:33:55;;;;;;;;;22.50;22.50;;;;;;;;5013152;28;47381;-71
2021/11/17 12:36:35;;;;;;;;;25.25;23.00;;;;;;;;5010974;28;45419;-71
2021/11/17 12:39:11;;;;;;;;;26.75;22.75;;;;;;;;5006092;28;45587;-71
2021/11/17 12:41:38;;;;;;;;;27.00;22.25;;;;;;;;5001967;28;45483;-71
2021/11/17 12:44:03;;;;;;;;;21.75;18.75;;;;;;;;5005388;28;46584;-71
2021/11/17 12:46:31;;;;;;;;;23.75;21.50;;;;;;;;5010402;28;45445;-71
2021/11/17 12:49:05;;;;;;;;;23.00;22.00;;;;;;;;5007617;28;45442;-71
2021/11/17 12:51:34;;;;;;;;;25.25;21.50;;;;;;;;5008818;28;45498;-71
2021/11/17 12:54:22;;;;;;;;;23.75;20.50;;;;;;;;5007314;28;45547;-71
2021/11/17 12:56:52;;;;;;;;;24.25;22.00;;;;;;;;5006168;28;45933;-71
2021/11/17 12:59:20;;;;;;;;;27.75;24.75;;;;;;;;5001886;28;45473;-71
2021/11/17 13:02:17;;;;;;;;;27.50;21.75;;;;;;;;5013834;28;45482;-71
2021/11/17 13:04:43;;;;;;;;;25.50;24.25;;;;;;;;5014125;28;46154;-71
2021/11/17 13:07:11;;;;;;;;;25.75;23.00;;;;;;;;5013015;28;45536;-71
2021/11/17 13:09:42;;;;;;;;;23.75;20.25;;;;;;;;5011043;28;45676;-71
2021/11/17 13:12:07;;;;;;;;;25.25;23.50;;;;;;;;5008855;28;45619;-71
2021/11/17 13:14:32;;;;;;;;;23.00;20.00;;;;;;;;5007923;28;46220;-71
2021/11/17 13:17:21;;;;;;;;;21.00;18.00;;;;;;;;5012756;28;45770;-71
2021/11/17 13:19:57;;;;;;;;;22.00;20.00;;;;;;;;4992108;28;45499;-71
2021/11/17 13:22:29;;;;;;;;;22.50;19.50;;;;;;;;5010489;28;45404;-71
2021/11/17 13:25:10;;;;;;;;;26.00;23.00;;;;;;;;5008326;28;45520;-71
2021/11/17 13:27:38;;;;;;;;;21.50;17.50;;;;;;;;5003553;28;45768;-71
2021/11/17 13:30:16;;;;;;;;;23.75;19.50;;;;;;;;5014162;28;45469;-71
2021/11/17 13:32:43;;;;;;;;;20.25;16.00;;;;;;;;5002968;28;45418;-71
2021/11/17 13:35:25;;;;;;;;;20.50;16.75;;;;;;;;5004804;28;46738;-71
2021/11/17 13:38:05;;;;;;;;;19.00;17.50;;;;;;;;5004751;28;45376;-70
2021/11/17 13:40:31;;;;;;;;;23.25;20.50;;;;;;;;5014673;28;45419;-70
2021/11/17 13:42:57;;;;;;;;;19.00;17.67;;;;;;;;5016090;28;45509;-71
2021/11/17 13:45:24;;;;;;;;;22.25;20.75;;;;;;;;5016456;28;45518;-72
2021/11/17 13:47:51;;;;;;;;;23.50;20.00;;;;;;;;5003732;28;45817;-72
2021/11/17 13:50:18;;;;;;;;;22.75;17.75;;;;;;;;4999258;28;45406;-72
2021/11/17 13:52:44;;;;;;;;;22.50;14.75;;;;;;;;5016002;28;45530;-71
2021/11/17 13:55:11;;;;;;;;;15.75;14.00;;;;;;;;5016057;28;45776;-71
2021/11/17 13:57:37;;;;;;;;;13.00;10.75;;;;;;;;5008245;28;45822;-71
2021/11/17 14:00:07;;;;;;;;;14.00;12.25;;;;;;;;5011398;28;45330;-70
2021/11/17 14:02:32;;;;;;;;;17.00;13.75;;;;;;;;5016508;28;45520;-71
2021/11/17 14:04:57;;;;;;;;;11.50;11.50;;;;;;;;5016287;28;45630;-71
2021/11/17 14:07:24;;;;;;;;;19.33;14.33;;;;;;;;5013703;28;45565;-71
2021/11/17 14:09:49;;;;;;;;;20.50;12.00;;;;;;;;5015897;28;45415;-71
2021/11/17 14:12:15;;;;;;;;;16.33;10.67;;;;;;;;5012679;28;45419;-70
2021/11/17 14:14:40;;;;;;;;;11.50;9.75;;;;;;;;5008205;28;45630;-71
2021/11/17 14:17:05;;;;;;;;;14.00;11.00;;;;;;;;5008818;28;45711;-71
2021/11/17 14:19:31;;;;;;;;;13.25;10.75;;;;;;;;5009816;28;45457;-71
2021/11/17 14:21:57;;;;;;;;;51.00;40.00;;;;;;;;5007073;28;45526;-71
2021/11/17 14:24:22;;;;;;;;;10.75;10.25;;;;;;;;5000525;28;45434;-70
2021/11/17 14:26:49;;;;;;;;;11.25;8.75;;;;;;;;5015557;28;45574;-71
2021/11/17 14:29:27;;;;;;;;;8.50;7.50;;;;;;;;5011950;28;45333;-71
2021/11/17 14:31:55;;;;;;;;;9.00;8.25;;;;;;;;5003145;28;45641;-71
2021/11/17 14:34:21;;;;;;;;;9.50;8.00;;;;;;;;5009410;28;45581;-71
2021/11/17 14:36:49;;;;;;;;;8.25;7.00;;;;;;;;5011867;28;45488;-71
2021/11/17 14:39:15;;;;;;;;;6.25;5.00;;;;;;;;5003597;28;45308;-71
2021/11/17 14:41:41;;;;;;;;;7.50;7.00;;;;;;;;4999035;28;45328;-71
2021/11/17 14:44:07;;;;;;;;;7.50;6.00;;;;;;;;5001861;28;45427;-71
2021/11/17 14:46:32;;;;;;;;;13.00;8.00;;;;;;;;5007048;28;45495;-71
2021/11/17 14:48:58;;;;;;;;;9.25;7.25;;;;;;;;5006699;28;45541;-71
2021/11/17 14:51:23;;;;;;;;;8.00;6.50;;;;;;;;5006197;28;45482;-72
2021/11/17 14:53:49;;;;;;;;;5.00;5.00;;;;;;;;5000963;28;48723;-71
2021/11/17 14:56:15;;;;;;;;;6.50;6.50;;;;;;;;5010077;28;45461;-71
2021/11/17 14:58:41;;;;;;;;;8.50;7.00;;;;;;;;5009746;28;45782;-71
2021/11/17 15:01:15;;;;;;;;;7.25;6.75;;;;;;;;5004512;28;45563;-72
2021/11/17 15:03:41;;;;;;;;;12.00;8.25;;;;;;;;5008812;28;46309;-71
2021/11/17 15:06:07;;;;;;;;;7.50;6.50;;;;;;;;5000255;28;45880;-71
2021/11/17 15:08:32;;;;;;;;;7.75;7.00;;;;;;;;5002625;28;45525;-70
2021/11/17 15:10:57;;;;;;;;;9.00;8.00;;;;;;;;5013539;28;45494;-71
2021/11/17 15:13:22;;;;;;;;;7.00;7.00;;;;;;;;5004976;28;45465;-72
2021/11/17 15:15:48;;;;;;;;;10.00;8.00;;;;;;;;5001203;28;45706;-71
2021/11/17 15:18:21;;;;;;;;;7.50;6.75;;;;;;;;5011963;28;45346;-71
2021/11/17 15:20:46;;;;;;;;;13.25;8.00;;;;;;;;4999578;28;45414;-70
2021/11/17 15:23:12;;;;;;;;;88.50;74.75;;;;;;;;5000580;28;47687;-70
2021/11/17 15:25:40;;;;;;;;;7.00;6.00;;;;;;;;5012675;28;45674;-71
2021/11/17 15:28:12;;;;;;;;;12.00;8.75;;;;;;;;5009761;28;45534;-71
2021/11/17 15:30:40;;;;;;;;;10.00;8.00;;;;;;;;5011453;28;45521;-71
2021/11/17 15:33:06;;;;;;;;;7.75;7.00;;;;;;;;5012225;28;45894;-71
2021/11/17 15:35:31;;;;;;;;;12.00;7.00;;;;;;;;4998245;28;45365;-71
2021/11/17 15:37:58;;;;;;;;;7.75;6.00;;;;;;;;5011686;28;45529;-70
2021/11/17 15:40:25;;;;;;;;;8.00;7.00;;;;;;;;5012435;28;48137;-71
2021/11/17 15:42:52;;;;;;;;;6.50;6.00;;;;;;;;5009911;28;46826;-70
2021/11/17 15:45:17;;;;;;;;;9.25;5.50;;;;;;;;5002168;28;45343;-70
2021/11/17 15:47:43;;;;;;;;;7.50;5.50;;;;;;;;4998333;28;45534;-71
2021/11/17 15:50:12;;;;;;;;;6.25;5.00;;;;;;;;4997380;28;45522;-71
2021/11/17 15:52:37;;;;;;;;;7.25;6.00;;;;;;;;5013547;28;46482;-70
2021/11/17 15:55:02;;;;;;;;;6.33;5.00;;;;;;;;5009000;28;45501;-71
2021/11/17 15:57:28;;;;;;;;;7.50;5.00;;;;;;;;5011581;28;45390;-71
2021/11/17 15:59:53;;;;;;;;;7.00;7.00;;;;;;;;5007790;28;45445;-70
2021/11/17 16:02:18;;;;;;;;;10.33;6.00;;;;;;;;5005192;28;45482;-71
2021/11/17 16:04:43;;;;;;;;;6.00;5.00;;;;;;;;5008035;28;45525;-70
2021/11/17 16:07:10;;;;;;;;;6.67;6.00;;;;;;;;5008224;28;45398;-71
2021/11/17 16:09:37;;;;;;;;;7.00;7.00;;;;;;;;5003884;28;45599;-71
2021/11/17 16:12:03;;;;;;;;;4.00;4.00;;;;;;;;5008057;28;45645;-71
2021/11/17 16:14:28;;;;;;;;;5.00;5.00;;;;;;;;5005000;28;45684;-71
2021/11/17 16:16:54;;;;;;;;;6.25;4.00;;;;;;;;4999578;28;45301;-71
2021/11/17 16:19:20;;;;;;;;;5.75;3.75;;;;;;;;5010109;28;45582;-71
2021/11/17 16:21:46;;;;;;;;;5.50;4.50;;;;;;;;5009061;28;45441;-71
2021/11/17 16:26:58;;;;;;;;;4.00;4.00;;;;;;;;5014236;28;45649;-71
2021/11/17 16:29:23;;;;;;;;;8.25;7.00;;;;;;;;5009014;28;45784;-70
2021/11/17 16:31:48;;;;;;;;;6.00;5.75;;;;;;;;5002718;28;46443;-70
2021/11/17 16:34:13;;;;;;;;;6.00;5.67;;;;;;;;5008926;28;45557;-71
2021/11/17 16:36:44;;;;;;;;;9.33;5.67;;;;;;;;5013880;28;47556;-71
2021/11/17 16:39:09;;;;;;;;;5.00;5.00;;;;;;;;5007511;28;45455;-71
2021/11/17 16:41:35;;;;;;;;;6.75;5.25;;;;;;;;5015612;28;45929;-71
2021/11/17 16:44:00;;;;;;;;;4.00;4.00;;;;;;;;5008101;28;45523;-70
2021/11/17 16:46:26;;;;;;;;;6.67;6.67;;;;;;;;4997121;28;45400;-70
2021/11/17 16:48:51;;;;;;;;;7.25;6.00;;;;;;;;5009186;28;45966;-70
2021/11/17 16:51:17;;;;;;;;;9.67;8.33;;;;;;;;5006062;28;45435;-70
2021/11/17 16:53:43;;;;;;;;;7.50;6.75;;;;;;;;5001156;28;45464;-70
2021/11/17 16:56:08;;;;;;;;;9.50;4.50;;;;;;;;5011645;28;45455;-70
2021/11/17 16:58:34;;;;;;;;;6.00;6.00;;;;;;;;5006152;28;45529;-70
2021/11/17 17:01:01;;;;;;;;;9.00;7.00;;;;;;;;5005820;28;45914;-70
2021/11/17 17:03:28;;;;;;;;;6.25;6.25;;;;;;;;5012770;28;45745;-70
2021/11/17 17:05:54;;;;;;;;;10.25;9.75;;;;;;;;5016958;28;45969;-70
2021/11/17 17:08:20;;;;;;;;;11.50;8.75;;;;;;;;5001855;28;45264;-70
2021/11/17 17:10:45;;;;;;;;;13.00;10.50;;;;;;;;5005488;28;45427;-70